createdAt,value
2023-05-23T04:34:07.971Z,12.35
2023-05-23T04:36:40.239Z,11.68
2023-05-23T04:39:09.638Z,11.70
2023-05-23T04:41:45.246Z,11.75
2023-05-23T04:44:20.655Z,12.27
2023-05-23T04:46:56.544Z,11.75
2023-05-23T04:49:34.081Z,12.27
2023-05-23T04:52:02.616Z,12.40
2023-05-23T04:54:33.129Z,12.65
2023-05-23T04:57:06.194Z,13.82
2023-05-23T04:59:35.169Z,14.32
2023-05-23T05:02:05.756Z,14.07
2023-05-23T05:04:36.299Z,15.55
2023-05-23T05:07:04.729Z,14.82
2023-05-23T05:09:33.226Z,15.00
2023-05-23T05:12:01.807Z,14.90
2023-05-23T05:14:30.957Z,14.38
2023-05-23T05:16:59.710Z,14.88
2023-05-23T05:19:36.494Z,14.88
2023-05-23T05:22:05.066Z,15.60
2023-05-23T05:24:33.813Z,14.55
2023-05-23T05:27:02.271Z,14.48
2023-05-23T05:29:31.365Z,14.30
2023-05-23T05:32:01.229Z,14.95
2023-05-23T05:34:29.910Z,14.70
2023-05-23T05:37:00.024Z,13.75
2023-05-23T05:39:28.352Z,13.10
2023-05-23T05:41:56.783Z,13.43
2023-05-23T05:44:25.414Z,12.00
2023-05-23T05:46:53.717Z,11.88
2023-05-23T05:49:22.616Z,11.38
2023-05-23T05:51:51.791Z,11.02
2023-05-23T05:54:21.612Z,10.65
2023-05-23T05:56:50.086Z,10.23
2023-05-23T05:59:18.640Z,10.68
2023-05-23T06:01:47.147Z,10.20
2023-05-23T06:04:16.542Z,9.43
2023-05-23T06:06:45.149Z,9.80
2023-05-23T06:09:13.523Z,10.38
2023-05-23T06:11:43.265Z,10.00
2023-05-23T06:14:11.807Z,9.70
2023-05-23T06:16:44.180Z,9.38
2023-05-23T06:19:13.172Z,9.95
2023-05-23T06:21:42.460Z,9.00
2023-05-23T06:24:12.518Z,9.52
2023-05-23T06:26:41.012Z,9.05
2023-05-23T06:29:11.544Z,8.60
2023-05-23T06:31:40.481Z,7.80
2023-05-23T06:34:09.206Z,7.93
2023-05-23T06:36:37.746Z,8.35
2023-05-23T06:39:06.189Z,7.88
2023-05-23T06:41:35.005Z,7.65
2023-05-23T06:44:03.558Z,7.60
2023-05-23T06:46:34.543Z,7.63
2023-05-23T06:49:14.367Z,7.72
2023-05-23T06:51:45.070Z,7.90
2023-05-23T06:54:14.211Z,8.25
2023-05-23T06:56:42.906Z,7.45
2023-05-23T06:59:11.418Z,7.45
2023-05-23T07:01:42.610Z,7.97
2023-05-23T07:04:14.090Z,7.60
2023-05-23T07:06:43.624Z,6.75
2023-05-23T07:09:13.192Z,5.35
2023-05-23T07:11:42.712Z,5.03
2023-05-23T07:14:11.773Z,5.15
2023-05-23T07:16:47.352Z,4.85
2023-05-23T07:19:15.852Z,4.75
2023-05-23T07:21:48.223Z,4.20
2023-05-23T07:24:19.137Z,4.28
2023-05-23T07:26:47.641Z,3.88
2023-05-23T07:29:17.038Z,3.90
2023-05-23T07:31:52.102Z,3.83
2023-05-23T07:34:21.881Z,3.53
2023-05-23T07:36:54.936Z,4.32
2023-05-23T07:39:25.968Z,4.10
2023-05-23T07:41:55.480Z,4.03
2023-05-23T07:44:25.315Z,3.88
2023-05-23T07:46:56.997Z,3.88
2023-05-23T07:49:29.525Z,3.70
2023-05-23T07:51:59.817Z,2.95
2023-05-23T07:54:28.286Z,4.20
2023-05-23T07:57:00.468Z,4.10
2023-05-23T07:59:30.121Z,3.90
2023-05-23T08:02:01.679Z,3.65
2023-05-23T08:04:32.258Z,4.30
2023-05-23T08:07:05.441Z,4.18
2023-05-23T08:09:47.414Z,3.90
2023-05-23T08:12:20.729Z,4.47
2023-05-23T08:14:52.921Z,4.85
2023-05-23T08:17:28.024Z,4.60
2023-05-23T08:19:56.761Z,4.57
2023-05-23T08:22:25.192Z,4.10
2023-05-23T08:24:56.850Z,4.03
2023-05-23T08:27:26.551Z,3.67
2023-05-23T08:29:59.666Z,4.10
2023-05-23T08:32:29.586Z,3.70
2023-05-23T08:34:58.554Z,4.00
2023-05-23T08:37:27.038Z,3.65
2023-05-23T08:39:55.551Z,3.80
2023-05-23T08:42:41.029Z,3.35
2023-05-23T08:45:11.695Z,3.17
2023-05-23T08:47:43.397Z,3.50
2023-05-23T08:50:13.732Z,3.30
2023-05-23T08:52:45.918Z,3.47
2023-05-23T08:55:15.102Z,3.40
2023-05-23T08:57:43.800Z,3.20
2023-05-23T09:00:33.948Z,3.65
2023-05-23T09:03:04.644Z,3.40
2023-05-23T09:05:59.456Z,2.80
2023-05-23T09:08:29.010Z,3.10
2023-05-23T09:11:02.781Z,3.03
2023-05-23T09:13:31.819Z,3.15
2023-05-23T09:16:04.823Z,2.95
2023-05-23T09:18:41.450Z,3.15
2023-05-23T09:21:11.465Z,3.28
2023-05-23T09:23:48.440Z,3.50
2023-05-23T09:26:16.981Z,3.88
2023-05-23T09:28:46.967Z,3.40
2023-05-23T09:31:16.306Z,3.58
2023-05-23T09:33:48.013Z,3.30
2023-05-23T09:36:16.720Z,3.50
2023-05-23T09:38:46.070Z,4.00
2023-05-23T09:41:15.051Z,3.70
2023-05-23T09:43:51.879Z,3.53
2023-05-23T09:46:21.218Z,3.60
2023-05-23T09:48:52.268Z,3.30
2023-05-23T09:51:22.150Z,3.00
2023-05-23T09:53:50.842Z,3.67
2023-05-23T09:56:19.661Z,3.40
2023-05-23T09:58:49.170Z,3.33
2023-05-23T10:01:18.538Z,4.30
2023-05-23T10:03:51.198Z,3.00
2023-05-23T10:06:26.742Z,3.53
2023-05-23T10:08:58.707Z,3.97
2023-05-23T10:11:41.956Z,3.00
2023-05-23T10:14:11.441Z,3.22
2023-05-23T10:16:42.224Z,2.95
2023-05-23T10:19:15.293Z,3.13
2023-05-23T10:21:46.929Z,3.38
2023-05-23T10:24:15.655Z,3.90
2023-05-23T10:26:45.150Z,3.22
2023-05-23T10:29:14.647Z,3.10
2023-05-23T10:31:43.513Z,3.03
2023-05-23T10:34:19.305Z,3.15
2023-05-23T10:36:54.032Z,3.67
2023-05-23T10:39:29.668Z,3.35
2023-05-23T10:42:00.748Z,3.67
2023-05-23T10:44:30.769Z,3.10
2023-05-23T10:47:02.024Z,3.45
2023-05-23T10:49:40.217Z,3.53
2023-05-23T10:52:13.417Z,2.90
2023-05-23T10:54:45.547Z,3.28
2023-05-23T10:57:14.418Z,3.10
2023-05-23T10:59:42.914Z,3.17
2023-05-23T11:02:18.896Z,3.70
2023-05-23T11:04:50.206Z,3.72
2023-05-23T11:07:33.237Z,3.80
2023-05-23T11:10:05.306Z,3.83
2023-05-23T11:12:41.038Z,3.33
2023-05-23T11:15:24.429Z,4.35
2023-05-23T11:17:54.080Z,4.20
2023-05-23T11:20:23.420Z,4.18
2023-05-23T11:23:11.144Z,4.00
2023-05-23T11:25:49.327Z,4.03
2023-05-23T11:28:18.312Z,3.83
2023-05-23T11:30:49.309Z,3.55
2023-05-23T11:33:18.604Z,3.00
2023-05-23T11:35:47.758Z,3.10
2023-05-23T11:38:17.823Z,3.13
2023-05-23T11:40:47.605Z,3.92
2023-05-23T11:43:16.905Z,3.40
2023-05-23T11:45:46.622Z,3.38
2023-05-23T11:48:16.424Z,3.72
2023-05-23T11:50:45.910Z,3.05
2023-05-23T11:53:17.065Z,3.30
2023-05-23T11:55:53.112Z,3.47
2023-05-23T11:58:22.077Z,3.22
2023-05-23T12:00:53.015Z,3.28
2023-05-23T12:03:24.037Z,3.40
2023-05-23T12:05:56.145Z,3.10
2023-05-23T12:08:25.170Z,2.72
2023-05-23T12:10:58.467Z,2.90
2023-05-23T12:13:27.056Z,2.35
2023-05-23T12:15:56.326Z,2.65
2023-05-23T12:18:25.049Z,2.40
2023-05-23T12:20:53.831Z,2.17
2023-05-23T12:23:23.255Z,2.30
2023-05-23T12:25:52.834Z,1.67
2023-05-23T12:28:22.755Z,2.08
2023-05-23T12:30:51.282Z,1.70
2023-05-23T12:33:20.874Z,2.10
2023-05-23T12:35:49.358Z,1.60
2023-05-23T12:38:18.265Z,1.80
2023-05-23T12:40:46.667Z,1.75
2023-05-23T12:43:17.672Z,2.00
2023-05-23T12:45:47.466Z,1.17
2023-05-23T12:48:15.810Z,1.40
2023-05-23T12:50:44.164Z,1.10
2023-05-23T12:53:12.734Z,1.50
2023-05-23T12:55:41.337Z,1.90
2023-05-23T12:58:09.859Z,1.92
2023-05-23T13:00:40.985Z,1.90
2023-05-23T13:03:11.116Z,1.83
2023-05-23T13:05:40.442Z,2.05
2023-05-23T13:08:08.959Z,1.58
2023-05-23T13:10:38.330Z,2.00
2023-05-23T13:13:07.317Z,1.85
2023-05-23T13:15:36.063Z,1.90
2023-05-23T13:18:04.469Z,1.88
2023-05-23T13:20:34.830Z,2.15
2023-05-23T13:23:03.406Z,2.20
2023-05-23T13:25:31.764Z,2.10
2023-05-23T13:28:01.349Z,2.50
2023-05-23T13:30:30.382Z,2.25
2023-05-23T13:32:58.843Z,2.83
2023-05-23T13:35:27.515Z,2.55
2023-05-23T13:37:57.207Z,2.78
2023-05-23T13:40:25.745Z,2.70
2023-05-23T13:42:54.152Z,3.05
2023-05-23T13:45:23.351Z,3.00
2023-05-23T13:47:51.880Z,3.10
2023-05-23T13:50:20.681Z,3.35
2023-05-23T13:52:49.661Z,3.20
2023-05-23T13:55:19.555Z,3.50
2023-05-23T13:57:48.080Z,3.55
2023-05-23T14:00:17.371Z,3.80
2023-05-23T14:02:49.569Z,3.53
2023-05-23T14:05:19.407Z,3.67
2023-05-23T14:07:48.345Z,3.60
2023-05-23T14:10:17.440Z,3.22
2023-05-23T14:12:47.661Z,3.97
2023-05-23T14:15:16.369Z,4.03
2023-05-23T14:17:44.814Z,3.90
2023-05-23T14:20:13.611Z,3.53
2023-05-23T14:22:41.982Z,3.40
2023-05-23T14:25:10.933Z,3.67
2023-05-23T14:27:40.152Z,4.35
2023-05-23T14:30:11.018Z,4.50
2023-05-23T14:32:39.525Z,4.45
2023-05-23T14:35:09.049Z,4.20
2023-05-23T14:37:37.547Z,5.10
2023-05-23T14:40:06.605Z,5.40
2023-05-23T14:42:35.052Z,4.70
2023-05-23T14:45:03.527Z,4.57
2023-05-23T14:47:33.703Z,5.32
2023-05-23T14:50:02.276Z,5.00
2023-05-23T14:52:30.992Z,4.93
2023-05-23T14:55:01.361Z,5.47
2023-05-23T14:57:29.806Z,5.30
2023-05-23T14:59:58.174Z,5.28
2023-05-23T15:02:30.437Z,5.80
2023-05-23T15:05:04.721Z,4.85
2023-05-23T15:07:33.384Z,4.90
2023-05-23T15:10:02.657Z,4.70
2023-05-23T15:12:31.070Z,5.07
2023-05-23T15:15:03.669Z,4.78
2023-05-23T15:17:35.136Z,4.88
2023-05-23T15:20:06.966Z,4.85
2023-05-23T15:22:39.704Z,4.85
2023-05-23T15:25:08.892Z,4.35
2023-05-23T15:27:37.254Z,4.90
2023-05-23T15:30:06.045Z,4.50
2023-05-23T15:32:34.575Z,5.07
2023-05-23T15:35:03.025Z,4.63
2023-05-23T15:37:32.702Z,4.93
2023-05-23T15:40:02.245Z,4.97
2023-05-23T15:42:30.786Z,4.75
2023-05-23T15:44:59.264Z,4.47
2023-05-23T15:47:27.870Z,4.55
2023-05-23T15:49:56.242Z,4.60
2023-05-23T15:52:24.564Z,4.55
2023-05-23T15:54:54.369Z,4.03
2023-05-23T15:57:22.743Z,3.70
2023-05-23T15:59:51.279Z,3.53
2023-05-23T16:02:21.083Z,3.20
2023-05-23T16:04:50.033Z,2.90
2023-05-23T16:07:18.669Z,3.55
2023-05-23T16:09:47.097Z,3.38
2023-05-23T16:12:16.852Z,3.10
2023-05-23T16:14:47.408Z,3.30
2023-05-23T16:17:15.844Z,3.50
2023-05-23T16:19:46.873Z,3.42
2023-05-23T16:22:16.086Z,3.25
2023-05-23T16:24:50.638Z,3.60
2023-05-23T16:27:20.687Z,3.50
2023-05-23T16:29:49.053Z,3.35
2023-05-23T16:32:17.463Z,3.30
2023-05-23T16:34:54.626Z,3.17
2023-05-23T16:37:25.461Z,2.90
2023-05-23T16:40:01.779Z,3.70
2023-05-23T16:42:34.256Z,3.58
2023-05-23T16:45:02.830Z,3.20
2023-05-23T16:47:33.744Z,3.30
2023-05-23T16:50:04.964Z,3.10
2023-05-23T16:52:36.348Z,3.05
2023-05-23T16:55:10.860Z,2.90
2023-05-23T16:57:40.896Z,2.58
2023-05-23T17:00:11.974Z,2.70
2023-05-23T17:02:47.764Z,2.65
2023-05-23T17:05:17.501Z,2.90
2023-05-23T17:07:47.022Z,2.40
2023-05-23T17:10:15.924Z,2.40
2023-05-23T17:12:46.963Z,2.60
2023-05-23T17:15:15.492Z,3.05
2023-05-23T17:17:44.001Z,2.60
2023-05-23T17:20:12.777Z,2.63
2023-05-23T17:22:41.722Z,2.70
2023-05-23T17:25:10.851Z,3.17
2023-05-23T17:27:39.223Z,3.45
2023-05-23T17:30:09.821Z,3.40
2023-05-23T17:32:48.194Z,3.20
2023-05-23T17:35:16.627Z,3.50
2023-05-23T17:37:45.277Z,3.00
2023-05-23T17:40:14.176Z,3.35
2023-05-23T17:42:42.726Z,3.22
2023-05-23T17:45:13.003Z,2.70
2023-05-23T17:47:41.608Z,3.30
2023-05-23T17:50:11.253Z,3.40
2023-05-23T17:52:39.612Z,3.20
2023-05-23T17:55:08.334Z,3.35
2023-05-23T17:57:36.656Z,3.45
2023-05-23T18:00:08.257Z,3.17
2023-05-23T18:02:47.267Z,2.90
2023-05-23T18:05:15.741Z,3.65
2023-05-23T18:07:44.090Z,3.45
2023-05-23T18:10:13.119Z,3.58
2023-05-23T18:12:41.867Z,2.83
2023-05-23T18:15:11.172Z,3.17
2023-05-23T18:17:39.674Z,3.15
2023-05-23T18:20:10.784Z,3.10
2023-05-23T18:22:41.191Z,3.13
2023-05-23T18:25:19.180Z,3.10
2023-05-23T18:27:47.627Z,3.72
2023-05-23T18:30:16.217Z,3.50
2023-05-23T18:32:47.309Z,3.28
2023-05-23T18:35:17.645Z,3.35
2023-05-23T18:37:46.425Z,3.20
2023-05-23T18:40:28.282Z,3.13
2023-05-23T18:42:58.891Z,3.38
2023-05-23T18:45:32.403Z,3.60
2023-05-23T18:48:00.968Z,3.20
2023-05-23T18:50:31.472Z,3.67
2023-05-23T18:53:00.259Z,3.75
2023-05-23T18:55:28.833Z,3.30
2023-05-23T18:57:58.979Z,3.42
2023-05-23T19:00:27.998Z,3.38
2023-05-23T19:02:56.701Z,3.28
2023-05-23T19:05:30.523Z,3.90
2023-05-23T19:08:01.214Z,3.50
2023-05-23T19:10:29.825Z,3.30
2023-05-23T19:12:58.206Z,3.05
2023-05-23T19:15:26.826Z,3.25
2023-05-23T19:17:55.288Z,3.45
2023-05-23T19:20:23.863Z,3.28
2023-05-23T19:22:54.596Z,3.28
2023-05-23T19:25:26.069Z,3.17
2023-05-23T19:27:55.666Z,3.30
2023-05-23T19:30:24.479Z,3.95
2023-05-23T19:32:52.969Z,3.28
2023-05-23T19:35:30.309Z,3.30
2023-05-23T19:37:59.026Z,3.42
2023-05-23T19:40:28.788Z,3.65
2023-05-23T19:42:57.209Z,3.50
2023-05-23T19:45:25.711Z,3.80
2023-05-23T19:47:57.104Z,4.30
2023-05-23T19:50:28.508Z,3.28
2023-05-23T19:52:56.978Z,4.20
2023-05-23T19:55:25.639Z,3.03
2023-05-23T19:57:56.261Z,3.60
2023-05-23T20:00:25.485Z,3.30
2023-05-23T20:02:56.900Z,3.63
2023-05-23T20:05:30.583Z,3.38
2023-05-23T20:08:01.189Z,3.78
2023-05-23T20:10:32.830Z,3.47
2023-05-23T20:13:08.489Z,3.47
2023-05-23T20:15:39.801Z,3.53
2023-05-23T20:18:15.349Z,3.40
2023-05-23T20:20:43.881Z,3.40
2023-05-23T20:23:14.787Z,3.42
2023-05-23T20:25:48.950Z,3.40
2023-05-23T20:28:18.844Z,3.35
2023-05-23T20:30:47.530Z,3.60
2023-05-23T20:33:21.812Z,3.45
2023-05-23T20:35:50.411Z,3.35
2023-05-23T20:38:19.955Z,3.17
2023-05-23T20:40:52.435Z,3.47
2023-05-23T20:43:23.663Z,3.15
2023-05-23T20:45:52.185Z,4.20
2023-05-23T20:48:21.443Z,2.97
2023-05-23T20:50:49.847Z,2.80
2023-05-23T20:53:18.442Z,3.25
2023-05-23T20:55:50.000Z,3.08
2023-05-23T20:58:18.528Z,3.55
2023-05-23T21:00:53.395Z,3.17
2023-05-23T21:03:30.897Z,3.67
2023-05-23T21:06:03.611Z,3.55
2023-05-23T21:08:42.931Z,3.30
2023-05-23T21:11:17.387Z,3.28
2023-05-23T21:13:52.347Z,2.92
2023-05-23T21:16:22.114Z,3.28
2023-05-23T21:18:50.570Z,3.17
2023-05-23T21:21:19.029Z,2.92
2023-05-23T21:23:47.462Z,3.85
2023-05-23T21:26:17.571Z,3.00
2023-05-23T21:28:46.008Z,3.25
2023-05-23T21:31:14.818Z,3.15
2023-05-23T21:33:47.678Z,2.97
2023-05-23T21:36:16.154Z,3.25
2023-05-23T21:38:44.565Z,3.15
2023-05-23T21:41:12.993Z,3.55
2023-05-23T21:43:43.254Z,3.25
2023-05-23T21:46:13.246Z,3.00
2023-05-23T21:48:41.714Z,3.05
2023-05-23T21:51:12.725Z,3.08
2023-05-23T21:53:41.134Z,3.22
2023-05-23T21:56:09.607Z,3.05
2023-05-23T21:58:38.105Z,3.33
2023-05-23T22:01:06.479Z,3.38
2023-05-23T22:03:35.974Z,3.40
2023-05-23T22:06:04.616Z,2.80
2023-05-23T22:08:34.531Z,3.47
2023-05-23T22:11:04.402Z,3.33
2023-05-23T22:13:35.611Z,3.28
2023-05-23T22:16:08.289Z,3.17
2023-05-23T22:18:50.923Z,3.42
2023-05-23T22:21:20.209Z,3.55
2023-05-23T22:23:49.910Z,2.78
2023-05-23T22:26:18.815Z,3.50
2023-05-23T22:28:47.372Z,3.20
2023-05-23T22:31:15.827Z,2.92
2023-05-23T22:33:44.308Z,3.33
2023-05-23T22:36:12.666Z,3.22
2023-05-23T22:38:41.050Z,3.58
2023-05-23T22:41:10.825Z,3.83
2023-05-23T22:43:39.229Z,3.10
2023-05-23T22:46:07.887Z,3.38
2023-05-23T22:48:36.623Z,3.17
2023-05-23T22:51:05.858Z,3.63
2023-05-23T22:53:34.289Z,3.70
2023-05-23T22:56:02.681Z,3.63
2023-05-23T22:58:32.477Z,3.40
2023-05-23T23:01:01.041Z,3.00
2023-05-23T23:03:29.504Z,3.20
2023-05-23T23:05:59.271Z,4.10
2023-05-23T23:08:27.869Z,4.00
2023-05-23T23:10:56.270Z,3.70
2023-05-23T23:13:24.675Z,3.72
2023-05-23T23:15:54.810Z,3.80
2023-05-23T23:18:23.221Z,3.10
2023-05-23T23:20:51.566Z,3.30
2023-05-23T23:23:19.970Z,4.40
2023-05-23T23:25:50.173Z,3.75
2023-05-23T23:28:18.846Z,3.65
2023-05-23T23:30:47.204Z,3.10
2023-05-23T23:33:17.110Z,3.80
2023-05-23T23:35:48.396Z,3.60
2023-05-23T23:38:17.301Z,4.22
2023-05-23T23:40:45.885Z,3.40
2023-05-23T23:43:14.466Z,3.63
2023-05-23T23:45:42.950Z,3.85
2023-05-23T23:48:13.785Z,3.55
2023-05-23T23:50:43.823Z,3.20
2023-05-23T23:53:12.592Z,3.70
2023-05-23T23:55:41.020Z,3.35
2023-05-23T23:58:09.435Z,3.75
